createdAt,value
2022-08-18T00:00:52.774Z,87.97
2022-08-18T00:01:52.853Z,88.57
2022-08-18T00:02:58.078Z,88.78
2022-08-18T00:03:59.369Z,89.53
2022-08-18T00:04:57.053Z,89.94
2022-08-18T00:05:52.736Z,90.20
2022-08-18T00:06:52.728Z,90.24
2022-08-18T00:07:52.724Z,90.30
2022-08-18T00:08:52.971Z,90.64
2022-08-18T00:09:52.714Z,90.09
2022-08-18T00:10:52.705Z,89.69
2022-08-18T00:11:52.691Z,89.53
2022-08-18T00:12:56.156Z,89.59
2022-08-18T00:13:53.749Z,89.59
2022-08-18T00:14:52.660Z,89.79
2022-08-18T00:15:52.650Z,89.39
2022-08-18T00:16:52.746Z,88.98
2022-08-18T00:17:52.663Z,88.78
2022-08-18T00:18:52.640Z,88.68
2022-08-18T00:19:52.653Z,88.48
2022-08-18T00:20:52.630Z,89.08
2022-08-18T00:21:52.628Z,88.88
2022-08-18T00:22:52.799Z,88.57
2022-08-18T00:23:52.599Z,88.98
2022-08-18T00:24:52.622Z,88.13
2022-08-18T00:25:52.604Z,87.52
2022-08-18T00:26:52.590Z,87.66
2022-08-18T00:27:52.561Z,87.66
2022-08-18T00:28:52.554Z,87.52
2022-08-18T00:29:52.572Z,87.87
2022-08-18T00:30:53.935Z,87.87
2022-08-18T00:31:52.545Z,87.46
2022-08-18T00:32:52.666Z,87.56
2022-08-18T00:33:52.538Z,87.77
2022-08-18T00:34:52.542Z,88.01
2022-08-18T00:35:52.518Z,87.97
2022-08-18T00:36:52.502Z,87.91
2022-08-18T00:37:52.738Z,88.51
2022-08-18T00:38:52.501Z,87.87
2022-08-18T00:39:52.575Z,88.17
2022-08-18T00:40:52.473Z,88.78
2022-08-18T00:41:52.507Z,88.98
2022-08-18T00:42:52.832Z,88.78
2022-08-18T00:43:52.470Z,88.98
2022-08-18T00:44:52.453Z,88.62
2022-08-18T00:45:52.468Z,88.72
2022-08-18T00:46:52.423Z,87.87
2022-08-18T00:47:52.635Z,88.68
2022-08-18T00:48:52.413Z,88.37
2022-08-18T00:49:52.434Z,88.98
2022-08-18T00:50:52.414Z,88.88
2022-08-18T00:51:52.448Z,88.48
2022-08-18T00:52:52.386Z,88.48
2022-08-18T00:53:52.383Z,88.07
2022-08-18T00:54:52.381Z,87.97
2022-08-18T00:55:53.733Z,87.87
2022-08-18T00:56:52.380Z,87.77
2022-08-18T00:57:52.595Z,88.07
2022-08-18T00:58:52.347Z,88.57
2022-08-18T00:59:52.396Z,88.17
2022-08-18T01:00:52.379Z,88.57
2022-08-18T01:01:52.337Z,88.48
2022-08-18T01:02:52.332Z,88.48
2022-08-18T01:03:52.341Z,88.98
2022-08-18T01:04:52.301Z,88.98
2022-08-18T01:05:52.294Z,88.78
2022-08-18T01:06:52.274Z,88.57
2022-08-18T01:07:52.457Z,88.78
2022-08-18T01:08:52.299Z,88.98
2022-08-18T01:09:52.278Z,88.92
2022-08-18T01:10:52.261Z,88.98
2022-08-18T01:11:52.241Z,89.12
2022-08-18T01:12:52.259Z,88.78
2022-08-18T01:13:52.266Z,88.78
2022-08-18T01:14:52.225Z,88.98
2022-08-18T01:15:52.247Z,88.78
2022-08-18T01:16:57.594Z,88.68
2022-08-18T01:17:53.289Z,88.98
2022-08-18T01:18:52.210Z,88.57
2022-08-18T01:19:52.194Z,88.78
2022-08-18T01:20:52.204Z,88.27
2022-08-18T01:21:52.335Z,87.97
2022-08-18T01:22:52.172Z,87.87
2022-08-18T01:23:52.197Z,88.37
2022-08-18T01:24:52.167Z,88.68
2022-08-18T01:25:52.163Z,88.98
2022-08-18T01:26:52.172Z,88.88
2022-08-18T01:27:52.390Z,88.27
2022-08-18T01:28:52.111Z,88.98
2022-08-18T01:29:52.115Z,88.88
2022-08-18T01:30:52.115Z,88.57
2022-08-18T01:31:54.396Z,88.78
2022-08-18T01:32:52.125Z,89.39
2022-08-18T01:33:52.083Z,89.28
2022-08-18T01:34:52.110Z,89.69
2022-08-18T01:35:52.067Z,89.69
2022-08-18T01:36:52.066Z,89.89
2022-08-18T01:37:52.286Z,89.69
2022-08-18T01:38:52.063Z,89.69
2022-08-18T01:41:17.332Z,89.69
2022-08-18T01:41:24.228Z,89.69
2022-08-18T01:41:53.042Z,90.03
2022-08-18T01:42:52.052Z,89.94
2022-08-18T01:43:52.024Z,89.63
2022-08-18T01:44:52.021Z,89.83
2022-08-18T02:02:35.891Z,90.34
2022-08-18T02:03:35.696Z,90.64
2022-08-18T02:04:37.240Z,90.54
2022-08-18T02:05:35.667Z,90.14
2022-08-18T02:06:35.664Z,90.54
2022-08-18T02:07:36.422Z,90.54
2022-08-18T02:08:35.687Z,90.54
2022-08-18T02:09:36.842Z,90.34
2022-08-18T02:10:37.737Z,90.18
2022-08-18T02:11:36.861Z,90.48
2022-08-18T02:12:36.858Z,90.18
2022-08-18T02:13:36.834Z,90.54
2022-08-18T02:14:37.863Z,90.24
2022-08-18T02:15:36.825Z,90.44
2022-08-18T02:16:36.816Z,90.34
2022-08-18T02:17:36.780Z,90.54
2022-08-18T02:18:48.138Z,90.95
2022-08-18T02:19:37.729Z,90.44
2022-08-18T02:20:37.740Z,90.14
2022-08-18T02:21:36.741Z,90.54
2022-08-18T02:22:36.786Z,90.09
2022-08-18T02:23:36.758Z,89.69
2022-08-18T02:25:08.584Z,89.73
2022-08-18T02:25:36.636Z,89.79
2022-08-18T02:26:36.631Z,90.14
2022-08-18T02:27:36.724Z,90.03
2022-08-18T02:28:36.604Z,90.64
2022-08-18T02:29:36.606Z,89.83
2022-08-18T02:30:36.609Z,90.34
2022-08-18T02:31:36.571Z,90.24
2022-08-18T02:32:36.588Z,89.99
2022-08-18T02:33:36.581Z,89.89
2022-08-18T02:34:36.582Z,90.03
2022-08-18T02:35:36.574Z,90.14
2022-08-18T02:36:36.543Z,90.14
2022-08-18T02:37:36.540Z,90.44
2022-08-18T02:38:36.565Z,90.60
2022-08-18T02:39:36.573Z,89.94
2022-08-18T02:40:36.536Z,89.63
2022-08-18T02:41:36.592Z,89.83
2022-08-18T02:42:36.592Z,90.09
2022-08-18T02:43:37.809Z,90.14
2022-08-18T02:44:37.545Z,90.14
2022-08-18T02:45:36.486Z,90.14
2022-08-18T02:46:36.471Z,89.69
2022-08-18T02:47:36.517Z,89.94
2022-08-18T02:48:36.460Z,89.94
2022-08-18T02:49:36.452Z,90.60
2022-08-18T02:50:36.460Z,90.75
2022-08-18T02:51:36.435Z,90.20
2022-08-18T02:52:36.446Z,90.70
2022-08-18T02:53:36.444Z,90.24
2022-08-18T02:54:36.413Z,90.09
2022-08-18T02:55:36.411Z,90.60
2022-08-18T02:56:41.320Z,90.75
2022-08-18T02:57:37.388Z,89.99
2022-08-18T02:58:36.403Z,90.14
2022-08-18T02:59:36.377Z,89.69
2022-08-18T03:00:36.382Z,89.89
2022-08-18T03:01:36.412Z,90.24
2022-08-18T03:02:36.358Z,90.75
2022-08-18T03:03:36.347Z,90.24
2022-08-18T03:04:36.359Z,90.50
2022-08-18T03:05:36.404Z,90.60
2022-08-18T03:06:36.321Z,90.40
2022-08-18T03:07:36.397Z,90.70
2022-08-18T03:08:36.318Z,90.40
2022-08-18T03:09:36.389Z,90.50
2022-08-18T03:10:36.316Z,90.54
2022-08-18T03:11:36.296Z,90.34
2022-08-18T03:12:36.276Z,90.50
2022-08-18T03:13:36.264Z,90.44
2022-08-18T03:14:36.278Z,90.34
2022-08-18T03:15:36.285Z,90.50
2022-08-18T03:16:36.240Z,90.50
2022-08-18T03:17:36.268Z,90.70
2022-08-18T03:18:36.245Z,90.34
2022-08-18T03:19:36.241Z,90.40
2022-08-18T03:20:36.216Z,90.40
2022-08-18T03:21:36.209Z,90.44
2022-08-18T03:22:36.204Z,90.30
2022-08-18T03:23:36.199Z,90.30
2022-08-18T03:24:36.203Z,90.24
2022-08-18T03:25:36.912Z,90.60
2022-08-18T03:26:36.170Z,90.84
2022-08-18T03:27:36.158Z,90.64
2022-08-18T03:28:36.180Z,90.54
2022-08-18T03:29:36.770Z,90.75
2022-08-18T03:30:36.168Z,91.25
2022-08-18T03:31:36.153Z,91.35
2022-08-18T03:32:36.127Z,91.15
2022-08-18T03:33:36.123Z,91.25
2022-08-18T03:34:36.108Z,91.35
2022-08-18T03:35:36.113Z,91.55
2022-08-18T03:36:36.105Z,91.55
2022-08-18T03:37:36.119Z,91.66
2022-08-18T03:38:36.079Z,91.55
2022-08-18T03:39:36.096Z,91.25
2022-08-18T03:40:36.096Z,90.80
2022-08-18T03:41:56.943Z,91.35
2022-08-18T03:42:37.890Z,91.51
2022-08-18T03:43:51.049Z,91.35
2022-08-18T03:44:37.039Z,91.20
2022-08-18T03:45:36.051Z,91.11
2022-08-18T03:46:36.027Z,91.20
2022-08-18T04:02:02.934Z,91.86
2022-08-18T04:03:02.932Z,92.06
2022-08-18T04:04:02.918Z,91.35
2022-08-18T04:05:05.197Z,91.96
2022-08-18T04:06:04.094Z,91.31
2022-08-18T04:07:04.035Z,91.25
2022-08-18T04:08:04.036Z,91.05
2022-08-18T04:09:04.002Z,91.15
2022-08-18T04:10:04.002Z,91.55
2022-08-18T04:11:04.022Z,91.20
2022-08-18T04:12:04.001Z,91.20
2022-08-18T04:13:04.005Z,90.95
2022-08-18T04:14:03.965Z,90.84
2022-08-18T04:15:03.961Z,91.25
2022-08-18T04:16:03.957Z,91.46
2022-08-18T04:17:03.981Z,91.20
2022-08-18T04:18:04.392Z,90.75
2022-08-18T04:19:03.997Z,91.46
2022-08-18T04:20:03.917Z,91.35
2022-08-18T04:21:03.932Z,91.31
2022-08-18T04:22:03.921Z,91.82
2022-08-18T04:23:03.890Z,92.06
2022-08-18T04:24:03.881Z,91.55
2022-08-18T04:25:03.902Z,91.75
2022-08-18T04:26:03.882Z,91.15
2022-08-18T04:27:03.864Z,91.15
2022-08-18T04:28:03.879Z,91.15
2022-08-18T04:29:03.870Z,91.41
2022-08-18T04:30:04.573Z,91.20
2022-08-18T04:31:03.836Z,90.80
2022-08-18T04:32:04.842Z,90.80
2022-08-18T04:33:03.838Z,91.00
2022-08-18T04:34:03.846Z,91.31
2022-08-18T04:35:03.825Z,91.25
2022-08-18T04:36:03.800Z,91.41
2022-08-18T04:37:03.790Z,91.61
2022-08-18T04:38:03.790Z,91.31
2022-08-18T04:39:03.800Z,90.50
2022-08-18T04:40:03.822Z,90.30
2022-08-18T04:41:03.762Z,90.40
2022-08-18T04:42:03.757Z,90.20
2022-08-18T04:43:03.741Z,90.70
2022-08-18T04:44:03.734Z,90.05
2022-08-18T04:45:03.778Z,90.45
2022-08-18T04:46:03.735Z,89.99
2022-08-18T04:47:03.717Z,89.75
2022-08-18T04:48:03.710Z,89.95
2022-08-18T04:49:03.700Z,89.65
2022-08-18T04:50:03.726Z,90.05
2022-08-18T04:51:03.691Z,89.54
2022-08-18T04:52:34.278Z,89.45
2022-08-18T04:53:04.686Z,90.05
2022-08-18T04:54:03.657Z,89.95
2022-08-18T04:55:03.665Z,89.81
2022-08-18T04:56:03.656Z,89.91
2022-08-18T04:57:03.638Z,89.81
2022-08-18T04:58:03.699Z,89.70
2022-08-18T04:59:03.633Z,89.70
2022-08-18T05:00:04.575Z,89.61
2022-08-18T05:01:03.648Z,89.50
2022-08-18T05:02:03.632Z,89.00
2022-08-18T05:03:03.602Z,89.30
2022-08-18T05:04:03.593Z,89.10
2022-08-18T05:05:03.623Z,89.30
2022-08-18T05:06:03.583Z,89.14
2022-08-18T05:07:03.591Z,89.40
2022-08-18T05:08:03.565Z,89.81
2022-08-18T05:09:03.546Z,89.61
2022-08-18T05:10:04.554Z,89.10
2022-08-18T05:11:04.229Z,89.61
2022-08-18T05:12:04.537Z,88.96
2022-08-18T05:13:03.516Z,89.20
2022-08-18T05:14:03.536Z,88.49
2022-08-18T05:15:03.810Z,88.45
2022-08-18T05:16:18.205Z,88.96
2022-08-18T05:17:05.515Z,88.85
2022-08-18T05:18:03.502Z,87.84
2022-08-18T05:19:03.501Z,87.84
2022-08-18T05:20:03.462Z,87.95
2022-08-18T05:21:03.458Z,87.64
2022-08-18T05:22:03.478Z,88.04
2022-08-18T05:23:03.462Z,87.84
2022-08-18T05:24:03.439Z,87.64
2022-08-18T05:25:03.423Z,88.15
2022-08-18T05:26:03.431Z,87.84
2022-08-18T05:27:03.441Z,87.64
2022-08-18T05:28:03.418Z,87.44
2022-08-18T05:29:17.596Z,87.84
2022-08-18T05:30:04.416Z,87.95
2022-08-18T05:31:03.390Z,87.34
2022-08-18T05:32:03.393Z,87.40
2022-08-18T05:33:03.411Z,87.19
2022-08-18T05:34:04.174Z,86.15
2022-08-18T05:35:03.408Z,86.85
2022-08-18T05:36:03.397Z,86.25
2022-08-18T05:37:03.322Z,86.45
2022-08-18T05:38:04.344Z,86.75
2022-08-18T05:39:03.335Z,85.80
2022-08-18T05:40:07.478Z,85.50
2022-08-18T05:41:05.302Z,85.60
2022-08-18T05:42:03.391Z,85.90
2022-08-18T05:43:03.292Z,85.60
2022-08-18T05:44:03.285Z,85.30
2022-08-18T05:45:03.315Z,85.50
2022-08-18T05:46:03.303Z,85.66
2022-08-18T05:47:03.261Z,85.25
2022-08-18T05:48:03.260Z,85.46
2022-08-18T05:49:03.262Z,84.95
2022-08-18T05:50:03.251Z,85.05
2022-08-18T05:51:04.158Z,84.45
2022-08-18T05:52:03.227Z,84.61
2022-08-18T05:53:03.229Z,85.05
2022-08-18T05:54:03.231Z,85.05
2022-08-18T05:55:03.228Z,84.31
2022-08-18T05:56:03.207Z,84.61
2022-08-18T05:57:03.178Z,84.41
2022-08-18T05:58:03.201Z,84.51
2022-08-18T05:59:03.269Z,84.81
2022-08-18T06:00:03.261Z,83.91
2022-08-18T06:01:03.174Z,83.97
2022-08-18T06:02:03.145Z,84.07
2022-08-18T06:03:03.188Z,83.46
2022-08-18T06:04:03.141Z,83.76
2022-08-18T06:05:03.123Z,83.46
2022-08-18T06:06:03.113Z,83.46
2022-08-18T06:07:03.140Z,82.96
2022-08-18T06:08:03.103Z,83.70
2022-08-18T06:09:03.153Z,83.91
2022-08-18T06:10:03.093Z,83.30
2022-08-18T06:11:03.086Z,83.87
2022-08-18T06:12:03.090Z,82.96
2022-08-18T06:13:03.094Z,82.76
2022-08-18T06:14:03.077Z,82.51
2022-08-18T06:15:05.980Z,82.62
2022-08-18T06:16:03.051Z,82.42
2022-08-18T06:17:03.053Z,82.51
2022-08-18T06:18:03.681Z,82.11
2022-08-18T06:19:03.060Z,82.01
2022-08-18T06:20:03.035Z,82.21
2022-08-18T06:21:03.014Z,82.01
2022-08-18T06:22:03.012Z,82.42
2022-08-18T06:23:03.030Z,82.11
2022-08-18T06:24:03.006Z,82.51
2022-08-18T06:25:03.005Z,82.42
2022-08-18T06:26:02.991Z,82.62
2022-08-18T06:27:03.986Z,82.31
2022-08-18T06:28:02.977Z,82.48
2022-08-18T06:29:03.025Z,81.37
2022-08-18T06:30:02.963Z,81.37
2022-08-18T06:31:02.935Z,81.37
2022-08-18T06:32:02.967Z,80.93
2022-08-18T06:33:02.907Z,81.23
2022-08-18T06:34:02.918Z,81.43
2022-08-18T06:35:02.907Z,81.13
2022-08-18T06:36:02.884Z,80.32
2022-08-18T06:37:02.880Z,80.19
2022-08-18T06:38:02.883Z,79.88
2022-08-18T06:39:02.951Z,79.99
2022-08-18T06:40:02.932Z,79.99
2022-08-18T06:41:02.846Z,80.08
2022-08-18T06:42:02.849Z,80.02
2022-08-18T06:43:02.857Z,80.93
2022-08-18T06:44:02.850Z,81.03
2022-08-18T06:45:02.927Z,81.19
2022-08-18T06:46:02.833Z,81.03
2022-08-18T06:47:02.804Z,81.09
2022-08-18T06:48:02.821Z,80.49
2022-08-18T06:49:02.807Z,80.39
2022-08-18T06:50:02.804Z,80.15
2022-08-18T06:51:02.781Z,80.05
2022-08-18T06:52:02.787Z,79.94
2022-08-18T06:53:02.784Z,80.05
2022-08-18T06:54:02.758Z,80.15
2022-08-18T06:55:02.767Z,80.89
2022-08-18T06:56:02.778Z,81.19
2022-08-18T06:57:02.748Z,82.04
2022-08-18T06:58:02.722Z,82.44
2022-08-18T06:59:02.726Z,82.38
2022-08-18T07:00:02.744Z,84.13
2022-08-18T07:01:02.843Z,84.23
2022-08-18T07:02:02.719Z,84.43
2022-08-18T07:03:02.689Z,84.33
2022-08-18T07:04:02.699Z,85.24
2022-08-18T07:05:02.684Z,85.03
2022-08-18T07:06:02.686Z,85.24
2022-08-18T07:07:02.672Z,84.43
2022-08-18T07:08:02.648Z,84.13
2022-08-18T07:09:02.642Z,83.69
2022-08-18T07:10:03.650Z,82.78
2022-08-18T07:11:02.650Z,83.04
2022-08-18T07:12:02.639Z,81.93
2022-08-18T07:13:02.613Z,81.63
2022-08-18T07:14:16.195Z,81.43
2022-08-18T07:15:04.636Z,80.99
2022-08-18T07:16:02.603Z,81.29
2022-08-18T07:17:02.607Z,81.49
2022-08-18T07:18:02.582Z,80.99
2022-08-18T07:19:02.605Z,81.05
2022-08-18T07:20:02.594Z,81.65
2022-08-18T07:21:02.587Z,81.15
2022-08-18T07:22:02.544Z,81.35
2022-08-18T07:23:02.575Z,81.65
2022-08-18T07:24:23.731Z,81.56
2022-08-18T07:25:05.537Z,81.76
2022-08-18T07:26:03.527Z,81.05
2022-08-18T07:27:02.539Z,81.65
2022-08-18T07:28:02.518Z,81.82
2022-08-18T07:29:02.517Z,81.62
2022-08-18T07:30:02.491Z,80.91
2022-08-18T07:31:16.507Z,81.62
2022-08-18T07:32:04.481Z,81.48
2022-08-18T07:33:02.486Z,81.07
2022-08-18T07:34:02.474Z,80.37
2022-08-18T07:35:02.460Z,80.94
2022-08-18T07:36:02.445Z,80.94
2022-08-18T07:37:02.450Z,81.04
2022-08-18T07:38:18.671Z,81.00
2022-08-18T07:39:04.436Z,80.26
2022-08-18T07:40:02.563Z,79.96
2022-08-18T07:41:03.203Z,79.86
2022-08-18T07:42:02.569Z,79.75
2022-08-18T07:43:02.608Z,79.52
2022-08-18T07:44:03.385Z,79.72
2022-08-18T07:45:02.423Z,79.52
2022-08-18T07:46:02.450Z,79.25
2022-08-18T07:47:02.379Z,79.32
2022-08-18T07:48:20.834Z,79.32
2022-08-18T07:49:05.634Z,79.22
2022-08-18T07:50:36.374Z,78.98
2022-08-18T07:51:08.596Z,78.78
2022-08-18T07:52:03.363Z,78.78
2022-08-18T07:53:02.357Z,77.94
2022-08-18T07:54:02.333Z,77.80
2022-08-18T07:55:02.326Z,77.44
2022-08-18T07:56:02.339Z,77.84
2022-08-18T07:57:02.413Z,78.14
2022-08-18T07:58:02.283Z,78.64
2022-08-18T07:59:02.297Z,78.38
2022-08-18T08:00:02.277Z,78.78
2022-08-18T08:01:02.274Z,79.32
2022-08-18T08:02:02.348Z,80.16
2022-08-18T08:03:02.266Z,81.50
2022-08-18T08:04:02.251Z,81.10
2022-08-18T08:05:02.231Z,80.70
2022-08-18T08:06:02.245Z,79.80
2022-08-18T08:07:23.448Z,80.70
2022-08-18T08:08:04.217Z,80.06
2022-08-18T08:09:02.223Z,79.96
2022-08-18T08:10:02.193Z,79.92
2022-08-18T08:11:02.185Z,79.72
2022-08-18T08:12:02.185Z,79.92
2022-08-18T08:13:09.190Z,79.62
2022-08-18T08:14:04.169Z,80.52
2022-08-18T08:15:02.153Z,80.66
2022-08-18T08:16:02.146Z,81.06
2022-08-18T08:17:02.172Z,81.12
2022-08-18T08:18:02.158Z,80.96
2022-08-18T08:19:02.132Z,80.86
2022-08-18T08:20:03.137Z,81.06
2022-08-18T08:21:02.142Z,81.96
2022-08-18T08:22:02.117Z,82.06
2022-08-18T08:23:02.140Z,82.57
2022-08-18T08:24:02.142Z,83.37
2022-08-18T08:25:47.763Z,82.81
2022-08-18T08:26:03.103Z,81.90
2022-08-18T08:27:02.090Z,83.47
2022-08-18T08:28:02.079Z,84.17
2022-08-18T08:29:02.161Z,84.35
2022-08-18T08:30:02.698Z,84.45
2022-08-18T08:31:25.629Z,85.36
2022-08-18T08:32:04.755Z,85.60
2022-08-18T08:33:02.027Z,86.80
2022-08-18T08:34:05.829Z,86.44
2022-08-18T08:35:03.682Z,88.35
2022-08-18T08:36:02.011Z,88.05
2022-08-18T08:37:01.998Z,88.15
2022-08-18T08:38:17.152Z,88.19
2022-08-18T08:39:03.982Z,88.70
2022-08-18T08:40:02.123Z,88.84
2022-08-18T08:41:01.987Z,90.00
2022-08-18T08:42:30.319Z,91.31
2022-08-18T08:43:02.942Z,90.61
2022-08-18T08:44:01.946Z,90.70
2022-08-18T08:45:01.937Z,91.66
2022-08-18T08:46:02.021Z,91.66
2022-08-18T08:47:01.911Z,91.86
2022-08-18T08:48:08.804Z,92.60
2022-08-18T08:49:03.917Z,92.26
2022-08-18T08:50:01.905Z,92.86
2022-08-18T08:51:01.899Z,91.96
2022-08-18T08:52:01.895Z,92.40
2022-08-18T08:53:01.913Z,93.71
2022-08-18T08:54:01.893Z,93.16
2022-08-18T08:55:01.865Z,94.47
2022-08-18T08:56:02.789Z,94.57
2022-08-18T08:57:02.885Z,94.78
2022-08-18T08:58:01.879Z,94.57
2022-08-18T08:59:01.836Z,94.52
2022-08-18T09:00:01.820Z,93.41
2022-08-18T09:01:01.836Z,94.72
2022-08-18T09:02:01.889Z,95.32
2022-08-18T09:03:01.831Z,94.32
2022-08-18T09:04:01.840Z,94.52
2022-08-18T09:05:08.249Z,93.81
2022-08-18T09:06:02.842Z,94.46
2022-08-18T09:07:01.770Z,93.86
2022-08-18T09:08:01.765Z,95.37
2022-08-18T09:09:01.774Z,95.87
2022-08-18T09:10:01.784Z,94.67
2022-08-18T09:11:01.758Z,95.67
2022-08-18T09:12:01.930Z,95.67
2022-08-18T09:13:01.728Z,95.72
2022-08-18T09:14:01.751Z,95.77
2022-08-18T09:15:01.714Z,96.48
2022-08-18T09:16:01.756Z,95.77
2022-08-18T09:17:02.725Z,95.51
2022-08-18T09:18:01.708Z,96.17
2022-08-18T09:19:01.701Z,97.08
2022-08-18T09:20:01.709Z,97.08
2022-08-18T09:21:01.677Z,97.49
2022-08-18T09:22:01.698Z,97.49
2022-08-18T09:23:01.719Z,96.33
2022-08-18T09:24:01.656Z,96.48
2022-08-18T09:25:01.695Z,96.58
2022-08-18T09:26:01.678Z,97.49
2022-08-18T09:27:01.624Z,97.28
2022-08-18T09:28:14.800Z,97.73
2022-08-18T09:29:03.626Z,98.13
2022-08-18T09:30:01.624Z,98.24
2022-08-18T09:31:01.606Z,97.43
2022-08-18T09:32:01.631Z,97.33
2022-08-18T09:33:01.578Z,98.54
2022-08-18T09:34:06.676Z,97.78
2022-08-18T09:35:05.430Z,98.54
2022-08-18T09:36:01.621Z,98.33
2022-08-18T09:37:01.591Z,98.24
2022-08-18T09:38:01.534Z,98.03
2022-08-18T09:39:01.569Z,98.54
2022-08-18T09:40:11.271Z,97.49
2022-08-18T09:41:03.533Z,98.33
2022-08-18T09:43:02.782Z,98.09
2022-08-18T09:44:02.541Z,98.29
2022-08-18T09:45:01.532Z,98.85
2022-08-18T09:46:01.512Z,98.30
2022-08-18T09:47:01.538Z,98.60
2022-08-18T09:48:01.507Z,98.45
2022-08-18T09:49:01.472Z,97.85
2022-08-18T09:50:02.454Z,97.95
2022-08-18T09:51:01.498Z,97.75
2022-08-18T09:52:02.248Z,98.10
2022-08-18T09:53:04.397Z,97.00
2022-08-18T09:54:01.451Z,96.30
2022-08-18T09:55:01.469Z,95.39
2022-08-18T09:56:04.963Z,95.64
2022-08-18T09:57:02.501Z,96.89
2022-08-18T09:58:01.417Z,97.09
2022-08-18T09:59:01.384Z,97.75
2022-08-18T10:00:01.402Z,97.91
2022-08-18T10:01:01.460Z,97.11
2022-08-18T10:02:02.385Z,95.70
2022-08-18T10:03:01.350Z,96.70
2022-08-18T10:04:01.359Z,95.95
2022-08-18T10:05:01.375Z,96.26
2022-08-18T10:06:01.332Z,96.71
2022-08-18T10:07:01.333Z,96.06
2022-08-18T10:08:01.326Z,95.81
2022-08-18T10:09:01.311Z,95.95
2022-08-18T10:10:01.347Z,96.21
2022-08-18T10:11:08.976Z,95.91
2022-08-18T10:12:03.303Z,95.01
2022-08-18T10:13:01.278Z,95.51
2022-08-18T10:14:01.309Z,95.97
2022-08-18T10:15:01.319Z,95.36
2022-08-18T10:16:11.242Z,94.90
2022-08-18T10:17:23.580Z,95.26
2022-08-18T10:18:03.260Z,95.16
2022-08-18T10:19:01.282Z,95.36
2022-08-18T10:20:01.243Z,95.16
2022-08-18T10:21:01.235Z,94.00
2022-08-18T10:22:01.230Z,94.00
2022-08-18T10:23:01.290Z,93.40
2022-08-18T10:24:32.050Z,94.35
2022-08-18T10:25:21.302Z,95.36
2022-08-18T10:26:05.133Z,95.05
2022-08-18T10:27:03.219Z,95.15
2022-08-18T10:28:01.215Z,96.21
2022-08-18T10:29:01.233Z,96.76
2022-08-18T10:30:01.167Z,96.61
2022-08-18T10:31:06.256Z,95.86
2022-08-18T10:32:02.154Z,97.17
2022-08-18T10:33:05.009Z,95.16
2022-08-18T10:34:05.491Z,94.76
2022-08-18T10:35:02.194Z,95.36
2022-08-18T10:36:03.060Z,94.01
2022-08-18T10:37:01.122Z,95.42
2022-08-18T10:38:01.109Z,96.17
2022-08-18T10:39:01.111Z,95.03
2022-08-18T10:41:07.459Z,92.62
2022-08-18T10:42:02.080Z,92.97
2022-08-18T10:43:05.046Z,92.97
2022-08-18T10:44:04.968Z,93.27
2022-08-18T10:45:02.807Z,92.21
2022-08-18T10:47:03.064Z,94.06
2022-08-18T10:48:02.040Z,94.26
2022-08-18T10:49:01.029Z,93.36
2022-08-18T10:50:01.031Z,92.61
2022-08-18T10:51:01.019Z,95.21
2022-08-18T10:52:01.410Z,94.07
2022-08-18T10:53:24.165Z,92.27
2022-08-18T10:54:02.976Z,91.66
2022-08-18T10:55:00.965Z,93.12
2022-08-18T10:56:01.148Z,93.02
2022-08-18T10:57:00.990Z,92.42
2022-08-18T10:58:00.961Z,92.62
2022-08-18T10:59:00.959Z,92.28
2022-08-18T11:00:00.932Z,92.63
2022-08-18T11:01:00.919Z,90.09
2022-08-18T11:02:00.926Z,91.09
2022-08-18T11:03:08.067Z,90.41
2022-08-18T11:05:01.916Z,90.00
2022-08-18T11:06:00.902Z,90.00
2022-08-18T11:07:00.902Z,88.25
2022-08-18T11:08:00.874Z,90.75
2022-08-18T11:09:00.852Z,90.84
2022-08-18T11:10:28.336Z,89.49
2022-08-18T11:11:32.575Z,91.53
2022-08-18T11:12:02.881Z,91.89
2022-08-18T11:13:04.427Z,91.63
2022-08-18T11:14:01.822Z,90.37
2022-08-18T11:15:00.802Z,91.24
2022-08-18T11:16:01.801Z,92.03
2022-08-18T11:17:00.803Z,91.67
2022-08-18T11:18:00.786Z,91.28
2022-08-18T11:19:00.794Z,90.22
2022-08-18T11:20:00.790Z,91.08
2022-08-18T11:21:00.767Z,91.17
2022-08-18T11:22:00.870Z,91.48
2022-08-18T11:23:00.755Z,91.78
2022-08-18T11:24:01.766Z,91.67
2022-08-18T11:25:00.754Z,91.88
2022-08-18T11:26:00.721Z,92.08
2022-08-18T11:27:00.764Z,91.74
2022-08-18T11:28:00.789Z,91.39
2022-08-18T11:29:00.737Z,91.29
2022-08-18T11:30:00.733Z,91.05
2022-08-18T11:31:00.705Z,91.55
2022-08-18T11:32:01.954Z,88.81
2022-08-18T11:33:02.637Z,89.25
2022-08-18T11:34:00.735Z,88.60
2022-08-18T11:35:00.703Z,88.75
2022-08-18T11:36:01.453Z,88.75
2022-08-18T11:37:00.644Z,88.95
2022-08-18T11:38:00.665Z,89.65
2022-08-18T11:39:00.656Z,89.95
2022-08-18T11:40:00.791Z,89.25
2022-08-18T11:41:09.609Z,90.75
2022-08-18T11:42:02.704Z,89.05
2022-08-18T11:43:00.596Z,88.31
2022-08-18T11:44:00.613Z,89.90
2022-08-18T11:45:00.631Z,88.51
2022-08-18T11:46:00.578Z,86.81
2022-08-18T11:47:00.587Z,87.66
2022-08-18T11:48:00.562Z,87.37
2022-08-18T11:49:00.903Z,86.52
2022-08-18T11:51:01.553Z,88.22
2022-08-18T11:52:02.179Z,87.42
2022-08-18T11:53:00.568Z,87.73
2022-08-18T11:54:00.732Z,85.93
2022-08-18T11:55:00.537Z,87.62
2022-08-18T11:56:00.522Z,86.36
2022-08-18T11:57:00.492Z,87.02
2022-08-18T11:58:00.595Z,87.87
2022-08-18T11:59:00.505Z,87.57
2022-08-18T12:00:01.219Z,87.37
2022-08-18T12:01:03.222Z,88.06
2022-08-18T12:02:00.424Z,87.57
2022-08-18T12:03:00.429Z,87.61
2022-08-18T12:04:00.536Z,88.90
2022-08-18T12:05:02.862Z,88.45
2022-08-18T12:06:00.479Z,89.39
2022-08-18T12:07:00.410Z,89.39
2022-08-18T12:08:01.845Z,88.79
2022-08-18T12:09:01.441Z,89.14
2022-08-18T12:10:17.837Z,89.03
2022-08-18T12:11:02.377Z,89.23
2022-08-18T12:12:01.371Z,88.73
2022-08-18T12:13:01.149Z,88.64
2022-08-18T12:14:00.378Z,88.64
2022-08-18T12:15:13.977Z,90.89
2022-08-18T12:16:02.338Z,88.15
2022-08-18T12:17:01.504Z,89.55
2022-08-18T12:18:00.375Z,86.45
2022-08-18T12:19:00.320Z,87.51
2022-08-18T12:20:00.299Z,86.81
2022-08-18T12:22:01.604Z,89.26
2022-08-18T12:23:00.402Z,87.76
2022-08-18T12:24:00.298Z,88.46
2022-08-18T12:25:01.267Z,88.60
2022-08-18T12:26:00.350Z,89.40
2022-08-18T12:27:00.982Z,88.71
2022-08-18T12:28:00.254Z,88.51
2022-08-18T12:29:01.498Z,89.40
2022-08-18T12:30:00.234Z,89.31
2022-08-18T12:31:00.208Z,89.05
2022-08-18T12:32:00.223Z,88.51
2022-08-18T12:33:10.253Z,88.51
2022-08-18T12:34:01.493Z,89.51
2022-08-18T12:35:05.389Z,89.31
2022-08-18T12:36:02.177Z,88.56
2022-08-18T12:37:00.196Z,88.67
2022-08-18T12:38:04.995Z,88.17
2022-08-18T12:39:02.180Z,87.76
2022-08-18T12:40:00.239Z,86.63
2022-08-18T12:41:00.160Z,86.93
2022-08-18T12:42:00.174Z,87.52
2022-08-18T12:43:00.123Z,87.48
2022-08-18T12:44:00.123Z,86.68
2022-08-18T12:45:00.134Z,87.08
2022-08-18T12:46:00.111Z,86.08
2022-08-18T12:47:00.105Z,85.88
2022-08-18T12:48:00.114Z,85.78
2022-08-18T12:49:00.086Z,85.99
2022-08-18T12:50:00.070Z,86.68
2022-08-18T12:51:00.951Z,86.08
2022-08-18T12:52:03.383Z,86.88
2022-08-18T12:53:00.134Z,85.99
2022-08-18T12:54:00.519Z,85.88
2022-08-18T12:55:00.067Z,85.58
2022-08-18T12:56:00.041Z,85.19
2022-08-18T12:57:00.046Z,86.08
2022-08-18T12:58:00.033Z,85.94
2022-08-18T12:59:00.038Z,85.44
2022-08-18T13:00:00.018Z,85.05
2022-08-18T13:01:00.025Z,85.55
2022-08-18T13:02:00.646Z,84.95
2022-08-18T13:03:00.006Z,84.65
2022-08-18T13:04:13.239Z,85.11
2022-08-18T13:05:01.159Z,85.05
2022-08-18T13:05:59.993Z,84.75
2022-08-18T13:07:01.998Z,84.35
2022-08-18T13:08:04.626Z,84.95
2022-08-18T13:08:59.966Z,85.35
2022-08-18T13:09:59.971Z,85.55
2022-08-18T13:10:59.969Z,84.05
2022-08-18T13:12:00.949Z,85.69
2022-08-18T13:12:59.914Z,86.44
2022-08-18T13:13:59.954Z,85.39
2022-08-18T13:14:59.936Z,85.39
2022-08-18T13:16:03.361Z,85.35
2022-08-18T13:16:59.921Z,84.55
2022-08-18T13:17:59.925Z,85.25
2022-08-18T13:18:59.896Z,83.51
2022-08-18T13:20:00.571Z,84.21
2022-08-18T13:20:59.907Z,83.51
2022-08-18T13:21:59.862Z,84.09
2022-08-18T13:22:59.865Z,84.29
2022-08-18T13:23:59.863Z,85.28
2022-08-18T13:24:59.848Z,84.15
2022-08-18T13:26:02.089Z,84.65
2022-08-18T13:26:59.834Z,84.84
2022-08-18T13:28:00.018Z,84.59
2022-08-18T13:28:59.813Z,85.55
2022-08-18T13:29:59.876Z,84.25